Henning, Minnesota
Current Conditions -  °F | °C
As of 6:53 PM on Monday 22 Dec 2014 (Local Time) from KADC Reporting Station
Light Snow Light Snow  
Wind Chill: 28°   Ceiling: 600
Heat Index: 34°   Visibility: 5mi
Dew Point: 32°   Wind: 7mph
Humidity: 93%   Direction: 90°E
Pressure: 29.61"   Gusts: NA
Location:  46.32°N, 95.45°W
Report Text: KADC 230053Z AUTO 09006KT 5SM -SN OVC006 01/00 A2961 RMK AO2
Loading
Personal Weather Stations






























Interactive Weather Map New forecast layout! Learn more

10-Day Weather Forecast

Advertisements
Track Severe Weather on mobile